Time;durP1;ratioP1;P1;durP2;ratioP2;P2;SDS_P1;SDS_P2;PMS_P1;PMS_P2;Temp;Humidity;BMP_temperature;BMP_pressure;BME280_temperature;BME280_humidity;BME280_pressure;Samples;Min_cycle;Max_cycle;Signal;HPM_P1;HPM_P2
2023/10/28 00:01:55;;;;;;;4.67;2.90;;;10.80;99.90;;;;;;4994205;28;20466;-71
2023/10/28 00:04:23;;;;;;;5.80;2.60;;;10.80;99.90;;;;;;4994570;28;20204;-70
2023/10/28 00:06:48;;;;;;;3.73;1.87;;;10.80;99.90;;;;;;4994215;28;20216;-69
2023/10/28 00:09:15;;;;;;;4.40;2.10;;;10.70;99.90;;;;;;4994368;28;20447;-70
2023/10/28 00:11:41;;;;;;;3.53;1.73;;;10.80;99.90;;;;;;4994171;28;20184;-71
2023/10/28 00:14:07;;;;;;;3.27;1.50;;;10.80;99.90;;;;;;4993508;28;20447;-71
2023/10/28 00:16:33;;;;;;;6.00;2.03;;;10.80;99.90;;;;;;4976975;28;20946;-70
2023/10/28 00:18:59;;;;;;;11.70;2.07;;;10.90;99.90;;;;;;4994134;28;20407;-70
2023/10/28 00:21:25;;;;;;;5.60;2.30;;;10.90;99.90;;;;;;4993997;28;20251;-71
2023/10/28 00:23:50;;;;;;;3.00;1.73;;;10.90;99.90;;;;;;4994103;28;20866;-71
2023/10/28 00:26:16;;;;;;;2.10;1.40;;;11.00;99.90;;;;;;4994196;28;20192;-70
2023/10/28 00:28:41;;;;;;;3.30;2.00;;;11.10;99.90;;;;;;4993782;28;20180;-70
2023/10/28 00:31:07;;;;;;;4.43;1.77;;;11.20;99.90;;;;;;4993794;28;20169;-70
2023/10/28 00:33:34;;;;;;;3.57;1.90;;;11.20;99.90;;;;;;4976326;28;20177;-71
2023/10/28 00:36:06;;;;;;;5.43;2.20;;;11.20;99.90;;;;;;4993902;28;20181;-71
2023/10/28 00:38:31;;;;;;;1.87;1.70;;;11.20;99.90;;;;;;4976300;28;20424;-70
2023/10/28 00:40:57;;;;;;;1.87;1.37;;;11.30;99.90;;;;;;4993771;28;20414;-71
2023/10/28 00:43:22;;;;;;;4.80;1.90;;;11.40;99.90;;;;;;4976097;28;20628;-72
2023/10/28 00:45:49;;;;;;;3.90;1.30;;;11.40;99.90;;;;;;4993655;28;20166;-72
2023/10/28 00:48:15;;;;;;;1.90;1.43;;;11.30;99.90;;;;;;4993568;28;20676;-72
2023/10/28 00:50:41;;;;;;;5.03;2.43;;;11.40;99.90;;;;;;4993472;28;20838;-72
2023/10/28 00:53:07;;;;;;;2.23;1.37;;;11.30;99.90;;;;;;4993612;28;20503;-72
2023/10/28 00:55:34;;;;;;;5.63;1.80;;;11.30;99.90;;;;;;4993473;28;20554;-72
2023/10/28 00:57:59;;;;;;;1.93;1.50;;;11.40;99.90;;;;;;4993711;28;20947;-72
2023/10/28 01:00:25;;;;;;;2.13;1.20;;;11.40;99.90;;;;;;4992235;28;20495;-72
2023/10/28 01:02:52;;;;;;;1.50;1.03;;;11.40;99.90;;;;;;4993133;28;20244;-72
2023/10/28 01:05:19;;;;;;;3.13;1.77;;;11.50;99.90;;;;;;4975926;28;20173;-72
2023/10/28 01:07:46;;;;;;;1.63;1.17;;;11.40;99.90;;;;;;4993244;28;20443;-72
2023/10/28 01:10:12;;;;;;;1.97;1.40;;;11.40;99.90;;;;;;4993315;28;20436;-72
2023/10/28 01:12:38;;;;;;;2.83;1.30;;;11.50;99.90;;;;;;4993040;28;20507;-72
2023/10/28 01:15:05;;;;;;;5.20;1.70;;;11.50;99.90;;;;;;4993103;28;21088;-72
2023/10/28 01:17:31;;;;;;;1.47;1.30;;;11.50;99.90;;;;;;4993039;28;20231;-72
2023/10/28 01:19:57;;;;;;;1.97;1.40;;;11.50;99.90;;;;;;4993186;28;20436;-72
2023/10/28 01:22:26;;;;;;;1.83;1.33;;;11.50;99.90;;;;;;4992868;28;20176;-72
2023/10/28 01:24:52;;;;;;;1.67;1.27;;;11.50;99.90;;;;;;4992323;28;20408;-72
2023/10/28 01:27:18;;;;;;;1.70;1.40;;;11.50;99.90;;;;;;4992886;28;21156;-72
2023/10/28 01:29:45;;;;;;;1.83;1.50;;;11.40;99.90;;;;;;4993010;28;20245;-72
2023/10/28 01:32:12;;;;;;;4.10;1.50;;;11.40;99.90;;;;;;4992804;28;20439;-72
2023/10/28 01:34:47;;;;;;;3.87;2.33;;;11.40;99.90;;;;;;4992866;28;20447;-72
2023/10/28 01:37:12;;;;;;;3.30;1.63;;;11.40;99.90;;;;;;4992700;28;20447;-72
2023/10/28 01:39:39;;;;;;;5.23;2.60;;;11.30;99.90;;;;;;4992736;28;20434;-72
2023/10/28 01:42:05;;;;;;;2.43;1.10;;;11.40;99.90;;;;;;4992602;28;20499;-71
2023/10/28 01:44:34;;;;;;;1.73;1.33;;;11.30;99.90;;;;;;4992786;28;20169;-71
2023/10/28 01:47:00;;;;;;;2.60;1.20;;;11.30;99.90;;;;;;4992697;28;20189;-72
2023/10/28 01:49:26;;;;;;;4.67;1.30;;;11.30;99.90;;;;;;4975280;28;20826;-72
2023/10/28 01:51:51;;;;;;;2.70;1.27;;;11.40;99.90;;;;;;4992497;28;20436;-72
2023/10/28 01:54:17;;;;;;;3.80;1.23;;;11.40;99.90;;;;;;4992529;28;20200;-71
2023/10/28 01:56:43;;;;;;;2.43;1.20;;;11.50;99.90;;;;;;4992563;28;20173;-72
2023/10/28 01:59:08;;;;;;;1.43;1.10;;;11.50;99.90;;;;;;4992550;28;20636;-72
2023/10/28 02:01:35;;;;;;;1.50;1.13;;;11.60;99.90;;;;;;4992426;28;20404;-72
2023/10/28 02:04:06;;;;;;;2.43;1.23;;;11.60;99.90;;;;;;4992597;28;20161;-72
2023/10/28 02:06:32;;;;;;;1.50;1.03;;;11.50;99.90;;;;;;4992493;28;20417;-72
2023/10/28 02:08:57;;;;;;;2.60;1.20;;;11.60;99.90;;;;;;4992483;28;20419;-72
2023/10/28 02:11:23;;;;;;;4.80;1.10;;;11.60;99.90;;;;;;4974856;28;20915;-72
2023/10/28 02:13:49;;;;;;;3.50;1.20;;;11.70;99.90;;;;;;4974941;28;20209;-72
2023/10/28 02:16:15;;;;;;;4.13;1.83;;;11.60;99.90;;;;;;4992459;28;20161;-72
2023/10/28 02:18:40;;;;;;;1.57;1.20;;;11.60;99.90;;;;;;4974941;28;20434;-72
2023/10/28 02:21:06;;;;;;;5.80;0.90;;;11.60;99.90;;;;;;4992262;28;20172;-71
2023/10/28 02:23:32;;;;;;;6.67;4.30;;;11.50;99.90;;;;;;4992513;28;20171;-72
2023/10/28 02:25:58;;;;;;;1.40;0.93;;;11.50;99.90;;;;;;4992579;28;20494;-72
2023/10/28 02:28:23;;;;;;;1.20;1.00;;;11.50;99.90;;;;;;4974584;28;20196;-72
2023/10/28 02:30:49;;;;;;;2.60;1.13;;;11.50;99.90;;;;;;4992103;28;20165;-72
2023/10/28 02:33:14;;;;;;;1.03;0.93;;;11.50;99.90;;;;;;4992233;28;20187;-72
2023/10/28 02:35:40;;;;;;;1.50;1.30;;;11.50;99.90;;;;;;4992156;28;20196;-72
2023/10/28 02:38:05;;;;;;;7.17;2.07;;;11.60;99.90;;;;;;4996001;28;20188;-72
2023/10/28 02:40:31;;;;;;;3.63;1.50;;;11.60;99.90;;;;;;4996128;28;20683;-71
2023/10/28 02:42:57;;;;;;;5.80;1.20;;;11.60;99.90;;;;;;4978393;28;20659;-72
2023/10/28 02:45:22;;;;;;;5.97;1.10;;;11.70;99.90;;;;;;4996008;28;20179;-71
2023/10/28 02:47:49;;;;;;;2.33;0.83;;;11.70;99.90;;;;;;4995885;28;20192;-72
2023/10/28 02:50:16;;;;;;;1.20;0.80;;;11.60;99.90;;;;;;4995897;28;20568;-72
2023/10/28 02:52:42;;;;;;;1.10;1.00;;;11.60;99.90;;;;;;4995730;28;20942;-72
2023/10/28 02:55:08;;;;;;;2.10;1.20;;;11.50;99.90;;;;;;4995764;28;20586;-72
2023/10/28 02:57:33;;;;;;;3.30;1.23;;;11.50;99.90;;;;;;4995685;28;20243;-72
2023/10/28 02:59:59;;;;;;;2.73;0.97;;;11.40;99.90;;;;;;4995788;28;20169;-72
2023/10/28 03:02:24;;;;;;;5.70;1.37;;;11.30;99.90;;;;;;4995584;28;20165;-72
2023/10/28 03:04:50;;;;;;;1.30;0.90;;;11.20;99.90;;;;;;4995629;28;20594;-71
2023/10/28 03:07:15;;;;;;;3.73;1.17;;;11.10;99.90;;;;;;4978010;28;20816;-72
2023/10/28 03:09:41;;;;;;;1.00;0.70;;;11.10;99.90;;;;;;4995606;28;20220;-72
2023/10/28 03:12:06;;;;;;;4.13;2.57;;;11.20;99.90;;;;;;4995334;28;20169;-72
2023/10/28 03:14:32;;;;;;;2.57;1.17;;;11.20;99.90;;;;;;4995493;28;20567;-71
2023/10/28 03:16:58;;;;;;;3.60;1.10;;;11.10;99.90;;;;;;4995334;28;20185;-72
2023/10/28 03:19:24;;;;;;;1.10;1.00;;;11.00;99.90;;;;;;4995308;28;20165;-72
2023/10/28 03:21:49;;;;;;;2.23;1.30;;;11.00;99.90;;;;;;4995302;28;20412;-72
2023/10/28 03:24:15;;;;;;;1.27;0.83;;;11.00;99.90;;;;;;4977800;28;20185;-72
2023/10/28 03:26:40;;;;;;;0.93;0.77;;;10.90;99.90;;;;;;4995190;28;20239;-72
2023/10/28 03:29:06;;;;;;;1.00;0.73;;;10.90;99.90;;;;;;4977784;28;20177;-72
2023/10/28 03:31:31;;;;;;;1.63;0.80;;;10.80;99.90;;;;;;4995037;28;20194;-71
2023/10/28 03:33:57;;;;;;;2.47;1.50;;;10.70;99.90;;;;;;4995058;28;20689;-72
2023/10/28 03:36:23;;;;;;;0.97;0.80;;;10.70;99.90;;;;;;4995011;28;20220;-72
2023/10/28 03:38:49;;;;;;;2.30;1.30;;;10.70;99.90;;;;;;4994963;28;20239;-72
2023/10/28 03:41:14;;;;;;;1.03;0.83;;;10.70;99.90;;;;;;4977393;28;20927;-72
2023/10/28 03:43:41;;;;;;;1.33;0.80;;;10.60;99.90;;;;;;4994945;28;20161;-71
2023/10/28 03:46:07;;;;;;;1.00;0.90;;;10.60;99.90;;;;;;4977353;28;20227;-71
2023/10/28 03:48:33;;;;;;;3.43;0.90;;;10.40;99.90;;;;;;4994021;28;20463;-72
2023/10/28 03:51:01;;;;;;;1.10;0.73;;;10.30;99.90;;;;;;4994594;28;20249;-71
2023/10/28 03:53:28;;;;;;;1.33;0.87;;;10.20;99.90;;;;;;4994973;28;20404;-71
2023/10/28 03:55:53;;;;;;;1.20;1.00;;;10.20;99.90;;;;;;4994618;28;20494;-72
2023/10/28 03:58:19;;;;;;;1.00;0.90;;;10.10;99.90;;;;;;4994599;28;20820;-72
2023/10/28 04:00:45;;;;;;;1.47;0.67;;;10.10;99.90;;;;;;4994565;28;20635;-72
2023/10/28 04:03:11;;;;;;;0.83;0.80;;;10.10;99.90;;;;;;4994654;28;20434;-72
2023/10/28 04:05:38;;;;;;;2.67;0.90;;;10.00;99.90;;;;;;4977082;28;20184;-72
2023/10/28 04:08:04;;;;;;;0.90;0.80;;;10.00;99.90;;;;;;4994386;28;20668;-72
2023/10/28 04:10:30;;;;;;;1.27;0.87;;;10.00;99.90;;;;;;4994411;28;20935;-72
2023/10/28 04:12:55;;;;;;;1.70;0.83;;;10.00;99.90;;;;;;4994338;28;20443;-72
2023/10/28 04:15:21;;;;;;;1.10;0.80;;;10.00;99.90;;;;;;4994324;28;20691;-72
2023/10/28 04:17:46;;;;;;;1.00;0.90;;;10.00;99.90;;;;;;4994261;28;20185;-71
2023/10/28 04:20:12;;;;;;;1.17;0.93;;;10.00;99.90;;;;;;4976829;28;20220;-71
2023/10/28 04:22:37;;;;;;;3.57;0.83;;;10.00;99.90;;;;;;4994054;28;20204;-71
2023/10/28 04:25:05;;;;;;;2.50;1.00;;;10.00;99.90;;;;;;4994159;28;20173;-72
2023/10/28 04:27:31;;;;;;;2.40;0.80;;;10.10;99.90;;;;;;4994086;28;20185;-72
2023/10/28 04:29:57;;;;;;;1.20;0.90;;;10.10;99.90;;;;;;4992842;28;20459;-72
2023/10/28 04:32:23;;;;;;;2.00;0.80;;;10.20;99.90;;;;;;4993892;28;20455;-72
2023/10/28 04:34:50;;;;;;;2.50;0.97;;;10.20;99.90;;;;;;4993959;28;20196;-72
2023/10/28 04:37:16;;;;;;;0.90;0.77;;;10.30;99.90;;;;;;4993909;28;20295;-72
2023/10/28 04:39:41;;;;;;;1.67;1.00;;;10.40;99.90;;;;;;4993895;28;20479;-72
2023/10/28 04:42:07;;;;;;;2.30;0.90;;;10.40;99.90;;;;;;4993699;28;20188;-72
2023/10/28 04:44:33;;;;;;;36.13;23.00;;;10.50;99.90;;;;;;4993827;28;20196;-72
2023/10/28 04:47:01;;;;;;;5.63;3.37;;;10.50;99.90;;;;;;4993601;28;20185;-72
2023/10/28 04:49:27;;;;;;;2.50;2.30;;;10.60;99.90;;;;;;4993675;28;20229;-72
2023/10/28 04:51:54;;;;;;;2.73;1.00;;;10.60;99.90;;;;;;4993524;28;20423;-72
2023/10/28 04:54:19;;;;;;;1.43;0.93;;;10.70;99.90;;;;;;4993466;28;20475;-72
2023/10/28 04:56:45;;;;;;;4.80;0.90;;;10.70;99.90;;;;;;4993465;28;20923;-72
2023/10/28 04:59:10;;;;;;;1.20;0.87;;;10.80;99.90;;;;;;4991727;28;20227;-72
2023/10/28 05:01:36;;;;;;;6.33;1.10;;;10.80;99.90;;;;;;4992883;28;20213;-72
2023/10/28 05:04:02;;;;;;;0.80;0.70;;;10.80;99.90;;;;;;4993512;28;20597;-72
2023/10/28 05:06:27;;;;;;;2.80;1.00;;;10.80;99.90;;;;;;4993633;28;20521;-71
2023/10/28 05:08:53;;;;;;;1.00;0.90;;;10.80;99.90;;;;;;4975578;28;20197;-72
2023/10/28 05:11:19;;;;;;;1.87;1.03;;;10.70;99.90;;;;;;4992989;28;20180;-72
2023/10/28 05:13:44;;;;;;;1.43;1.07;;;10.70;99.90;;;;;;4993092;28;20644;-72
2023/10/28 05:16:10;;;;;;;0.90;0.80;;;10.70;99.90;;;;;;4993220;28;20503;-72
2023/10/28 05:18:36;;;;;;;2.40;1.47;;;10.70;99.90;;;;;;4992967;28;20188;-72
2023/10/28 05:21:02;;;;;;;10.20;5.17;;;10.70;99.90;;;;;;4991744;28;20546;-72
2023/10/28 05:23:28;;;;;;;1.83;1.60;;;10.80;99.90;;;;;;4993102;28;20768;-71
2023/10/28 05:25:56;;;;;;;2.03;0.90;;;10.80;99.90;;;;;;4993086;28;20407;-71
2023/10/28 05:28:22;;;;;;;5.33;1.57;;;10.80;99.90;;;;;;4992902;28;20199;-71
2023/10/28 05:30:47;;;;;;;5.37;1.10;;;10.90;99.90;;;;;;4992741;28;20408;-72
2023/10/28 05:33:13;;;;;;;1.30;1.20;;;11.00;99.90;;;;;;4992983;28;20169;-71
2023/10/28 05:35:39;;;;;;;3.03;0.90;;;10.90;99.90;;;;;;4992749;28;20231;-70
2023/10/28 05:38:04;;;;;;;1.77;1.00;;;10.90;99.90;;;;;;4992767;28;20834;-70
2023/10/28 05:40:30;;;;;;;2.13;1.37;;;11.00;99.90;;;;;;4992643;28;20172;-71
2023/10/28 05:42:56;;;;;;;0.93;0.83;;;10.90;99.90;;;;;;4992472;28;20172;-71
2023/10/28 05:45:21;;;;;;;1.90;1.37;;;10.90;99.90;;;;;;4975337;28;20172;-71
2023/10/28 05:47:47;;;;;;;8.17;1.83;;;10.90;99.90;;;;;;4992674;28;20196;-71
2023/10/28 05:50:13;;;;;;;1.63;1.20;;;10.90;99.90;;;;;;4992530;28;20165;-71
2023/10/28 05:52:38;;;;;;;1.57;1.33;;;10.80;99.90;;;;;;4975030;28;20408;-71
2023/10/28 05:55:04;;;;;;;1.77;1.00;;;10.80;99.90;;;;;;4992619;28;20192;-71
2023/10/28 05:57:30;;;;;;;4.40;0.93;;;10.80;99.90;;;;;;4992465;28;20550;-71
2023/10/28 05:59:56;;;;;;;1.10;1.00;;;10.80;99.90;;;;;;4991224;28;20496;-71
2023/10/28 06:02:21;;;;;;;2.77;1.57;;;10.80;99.90;;;;;;4992427;28;20172;-71
2023/10/28 06:04:47;;;;;;;1.33;1.20;;;10.70;99.90;;;;;;4992515;28;20165;-71
2023/10/28 06:07:12;;;;;;;1.90;1.30;;;10.70;99.90;;;;;;4992437;28;20259;-70
2023/10/28 06:09:38;;;;;;;1.93;0.90;;;10.60;99.90;;;;;;4992468;28;20594;-70
2023/10/28 06:12:04;;;;;;;1.30;1.10;;;10.60;99.90;;;;;;4977411;28;20239;-70
2023/10/28 06:14:30;;;;;;;3.17;1.30;;;10.60;99.90;;;;;;4996398;28;20192;-70
2023/10/28 06:16:57;;;;;;;3.53;1.47;;;10.60;99.90;;;;;;4996329;28;20423;-71
2023/10/28 06:19:23;;;;;;;2.50;1.30;;;10.60;99.90;;;;;;4995174;28;20414;-71
2023/10/28 06:21:49;;;;;;;1.83;1.50;;;10.60;99.90;;;;;;4996251;28;20406;-71
2023/10/28 06:24:14;;;;;;;3.87;1.80;;;10.70;99.90;;;;;;4996396;28;20424;-71
2023/10/28 06:26:40;;;;;;;2.13;1.90;;;10.70;99.90;;;;;;4994987;28;20188;-71
2023/10/28 06:29:08;;;;;;;2.23;1.73;;;10.70;99.90;;;;;;4996198;28;20177;-71
2023/10/28 06:31:35;;;;;;;2.43;1.83;;;10.70;99.90;;;;;;4996103;28;20521;-71
2023/10/28 06:34:04;;;;;;;2.90;2.00;;;10.80;99.90;;;;;;4996169;28;20785;-71
2023/10/28 06:36:29;;;;;;;2.60;1.53;;;10.80;99.90;;;;;;4996040;28;20974;-71
2023/10/28 06:38:55;;;;;;;2.30;1.43;;;10.90;99.90;;;;;;4995967;28;20400;-71
2023/10/28 06:41:21;;;;;;;3.53;1.60;;;11.00;99.90;;;;;;4995919;28;20161;-71
2023/10/28 06:43:46;;;;;;;2.60;1.40;;;11.10;99.90;;;;;;4995996;28;20400;-71
2023/10/28 06:46:13;;;;;;;3.53;1.87;;;11.20;99.90;;;;;;4996043;28;20219;-71
2023/10/28 06:48:38;;;;;;;3.63;2.27;;;11.30;99.90;;;;;;5013017;28;20198;-71
2023/10/28 06:51:06;;;;;;;2.70;1.63;;;11.30;99.90;;;;;;5015359;28;20956;-71
2023/10/28 06:53:32;;;;;;;3.73;1.50;;;11.40;99.90;;;;;;5014092;28;20164;-71
2023/10/28 06:56:02;;;;;;;2.60;1.50;;;11.50;99.90;;;;;;5015297;28;20458;-71
2023/10/28 06:58:28;;;;;;;2.00;1.67;;;11.60;99.90;;;;;;5015310;28;20188;-71
2023/10/28 07:00:54;;;;;;;3.50;2.33;;;11.60;99.90;;;;;;5015243;28;20490;-71
2023/10/28 07:03:20;;;;;;;4.63;1.90;;;11.70;99.90;;;;;;5015197;28;20494;-71
2023/10/28 07:05:46;;;;;;;2.17;1.93;;;11.70;99.90;;;;;;5015262;28;20180;-71
2023/10/28 07:08:11;;;;;;;2.30;2.10;;;11.70;99.90;;;;;;5015038;28;20195;-71
2023/10/28 07:10:37;;;;;;;2.13;1.60;;;11.70;99.90;;;;;;5015233;28;20411;-71
2023/10/28 07:13:02;;;;;;;2.00;1.63;;;11.80;99.90;;;;;;5014978;28;20164;-72
2023/10/28 07:15:28;;;;;;;3.63;1.90;;;11.70;99.90;;;;;;5014830;28;20234;-71
2023/10/28 07:17:54;;;;;;;5.27;1.60;;;11.60;99.90;;;;;;5013676;28;20199;-71
2023/10/28 07:20:20;;;;;;;1.80;1.70;;;11.60;99.90;;;;;;5014910;28;20215;-71
2023/10/28 07:22:46;;;;;;;1.70;1.60;;;11.60;99.90;;;;;;5012340;28;20403;-71
2023/10/28 07:25:12;;;;;;;3.10;2.17;;;11.70;99.90;;;;;;5014879;28;20168;-71
2023/10/28 07:27:38;;;;;;;2.00;1.80;;;11.70;99.90;;;;;;5014666;28;20427;-70
2023/10/28 07:30:04;;;;;;;2.00;1.80;;;11.70;99.90;;;;;;5014840;28;20218;-71
2023/10/28 07:32:31;;;;;;;1.53;1.43;;;11.70;99.90;;;;;;5014449;28;20419;-71
2023/10/28 07:34:56;;;;;;;3.93;1.80;;;11.70;99.90;;;;;;5013335;28;20451;-71
2023/10/28 07:37:22;;;;;;;2.57;1.70;;;11.70;99.90;;;;;;5014458;28;20968;-72
2023/10/28 07:39:47;;;;;;;3.10;1.83;;;11.60;99.90;;;;;;5014674;28;20543;-71
2023/10/28 07:42:14;;;;;;;2.17;1.93;;;11.60;99.90;;;;;;5011170;28;20175;-70
2023/10/28 07:44:40;;;;;;;2.63;1.90;;;11.70;99.90;;;;;;5002822;28;20170;-71
2023/10/28 07:47:05;;;;;;;2.13;1.60;;;11.70;99.90;;;;;;5002800;28;20431;-72
2023/10/28 07:49:31;;;;;;;5.60;1.47;;;11.70;99.90;;;;;;5002751;28;20774;-70
2023/10/28 07:51:56;;;;;;;2.20;1.57;;;11.80;99.90;;;;;;4994735;28;20171;-71
2023/10/28 07:54:22;;;;;;;3.93;1.87;;;11.90;99.90;;;;;;4994719;28;20279;-71
2023/10/28 07:56:47;;;;;;;1.80;1.40;;;11.90;99.90;;;;;;4994692;28;20196;-71
2023/10/28 07:59:13;;;;;;;3.40;1.50;;;11.90;99.90;;;;;;4994663;28;20223;-71
2023/10/28 08:01:39;;;;;;;3.73;2.00;;;12.00;99.90;;;;;;4994575;28;20161;-73
2023/10/28 08:04:05;;;;;;;2.47;2.27;;;12.00;99.90;;;;;;4994733;28;20169;-70
2023/10/28 08:06:31;;;;;;;4.00;2.13;;;12.10;99.90;;;;;;4994770;28;20759;-70
2023/10/28 08:08:56;;;;;;;7.07;3.20;;;12.10;99.90;;;;;;4994402;28;20404;-70
2023/10/28 08:11:24;;;;;;;4.53;2.10;;;12.10;99.90;;;;;;4994267;28;20169;-72
2023/10/28 08:13:53;;;;;;;2.93;1.97;;;12.20;99.90;;;;;;4994317;28;20192;-70
2023/10/28 08:16:20;;;;;;;3.00;1.80;;;12.20;99.90;;;;;;4994305;28;20405;-72
2023/10/28 08:18:46;;;;;;;6.87;1.30;;;12.30;99.90;;;;;;5008671;28;20980;-72
2023/10/28 08:21:14;;;;;;;3.67;1.90;;;12.30;99.90;;;;;;5013682;28;20403;-70
2023/10/28 08:23:40;;;;;;;1.67;1.20;;;12.30;99.90;;;;;;4996037;28;20424;-72
2023/10/28 08:26:08;;;;;;;1.40;1.30;;;12.40;99.90;;;;;;5002507;28;20408;-70
2023/10/28 08:28:33;;;;;;;4.50;1.73;;;12.50;99.90;;;;;;4994005;28;20431;-71
2023/10/28 08:30:59;;;;;;;1.93;1.63;;;12.50;99.90;;;;;;4993876;28;20419;-70
2023/10/28 08:33:24;;;;;;;4.30;1.83;;;12.60;99.90;;;;;;4994916;28;20203;-71
2023/10/28 08:35:51;;;;;;;1.50;1.40;;;12.70;99.90;;;;;;5013356;28;20207;-72
2023/10/28 08:38:17;;;;;;;1.17;1.07;;;12.70;99.90;;;;;;5013938;28;20177;-72
2023/10/28 08:40:46;;;;;;;2.63;1.70;;;12.80;99.90;;;;;;5014090;28;20400;-72
2023/10/28 08:43:14;;;;;;;3.00;1.30;;;12.70;99.90;;;;;;5013448;28;20788;-71
2023/10/28 08:45:45;;;;;;;1.60;1.20;;;12.70;99.90;;;;;;5013616;28;20409;-71
2023/10/28 08:48:12;;;;;;;2.37;1.13;;;12.70;99.90;;;;;;5013299;28;20956;-71
2023/10/28 08:50:40;;;;;;;1.23;1.10;;;12.80;99.90;;;;;;5013218;28;20825;-71
2023/10/28 08:53:08;;;;;;;3.70;1.67;;;13.00;99.90;;;;;;5013272;28;20771;-71
2023/10/28 08:55:36;;;;;;;1.90;1.80;;;13.00;99.90;;;;;;5013151;28;20454;-71
2023/10/28 08:58:03;;;;;;;3.73;1.40;;;13.10;99.90;;;;;;5013692;28;20423;-71
2023/10/28 09:00:30;;;;;;;1.80;1.37;;;13.20;99.90;;;;;;5013615;28;20411;-70
2023/10/28 09:02:56;;;;;;;1.70;1.40;;;13.30;99.90;;;;;;5013245;28;20403;-71
2023/10/28 09:05:22;;;;;;;1.70;1.60;;;13.60;99.90;;;;;;5012014;28;20756;-72
2023/10/28 09:07:48;;;;;;;3.43;1.57;;;13.80;99.90;;;;;;5013165;28;20427;-72
2023/10/28 09:10:14;;;;;;;1.50;1.40;;;14.10;99.90;;;;;;5013185;28;20222;-72
2023/10/28 09:12:40;;;;;;;4.03;2.10;;;14.20;99.90;;;;;;5012982;28;20173;-72
2023/10/28 09:15:08;;;;;;;1.77;1.37;;;14.30;99.90;;;;;;5013058;28;20565;-71
2023/10/28 09:17:34;;;;;;;2.50;2.30;;;14.50;99.90;;;;;;5011732;28;20513;-72
2023/10/28 09:20:00;;;;;;;6.10;1.60;;;14.60;99.90;;;;;;5012896;28;20442;-72
2023/10/28 09:22:26;;;;;;;3.10;1.47;;;14.70;99.90;;;;;;4995482;28;20171;-70
2023/10/28 09:24:55;;;;;;;2.83;1.80;;;14.80;99.90;;;;;;5013380;28;20774;-71
2023/10/28 09:27:21;;;;;;;1.80;1.40;;;14.90;99.90;;;;;;5013204;28;20527;-71
2023/10/28 09:29:46;;;;;;;1.97;1.50;;;15.10;99.90;;;;;;5013326;28;20841;-71
2023/10/28 09:32:13;;;;;;;4.20;1.30;;;15.30;99.90;;;;;;5013164;28;20177;-70
2023/10/28 09:34:39;;;;;;;3.43;1.30;;;15.50;99.90;;;;;;5011614;28;20192;-70
2023/10/28 09:37:06;;;;;;;3.23;1.07;;;15.70;99.90;;;;;;5013774;28;20496;-71
2023/10/28 09:39:33;;;;;;;2.20;1.27;;;16.00;99.90;;;;;;4995913;28;20407;-71
2023/10/28 09:42:00;;;;;;;1.83;0.90;;;16.10;99.90;;;;;;5013583;28;20457;-70
2023/10/28 09:44:26;;;;;;;1.20;0.80;;;16.30;99.90;;;;;;5013451;28;20438;-70
2023/10/28 09:46:59;;;;;;;0.90;0.70;;;16.30;99.90;;;;;;5012774;28;20427;-71
2023/10/28 09:49:28;;;;;;;1.13;1.00;;;16.00;99.90;;;;;;5013888;28;20418;-70
2023/10/28 09:52:06;;;;;;;1.30;0.83;;;16.10;99.90;;;;;;5013887;28;20483;-70
2023/10/28 09:54:36;;;;;;;3.90;0.90;;;16.20;99.90;;;;;;5013947;28;20977;-70
2023/10/28 09:57:03;;;;;;;1.10;0.70;;;16.30;99.90;;;;;;5013050;28;20426;-70
2023/10/28 09:59:33;;;;;;;2.07;0.90;;;16.40;99.90;;;;;;5013520;28;20402;-71
2023/10/28 10:02:27;;;;;;;0.93;0.73;;;16.50;99.90;;;;;;5012604;28;20467;-70
2023/10/28 10:05:05;;;;;;;1.40;0.80;;;16.70;99.90;;;;;;5012301;28;20411;-70
2023/10/28 10:07:32;;;;;;;2.40;1.03;;;17.50;99.90;;;;;;5012272;28;20420;-70
2023/10/28 10:10:16;;;;;;;1.10;0.87;;;19.00;99.90;;;;;;5012246;28;20403;-70
2023/10/28 10:12:42;;;;;;;1.00;0.70;;;22.40;99.90;;;;;;5012265;28;21129;-70
2023/10/28 10:15:13;;;;;;;1.20;1.10;;;23.70;99.90;;;;;;5012135;28;20849;-71
2023/10/28 10:17:51;;;;;;;3.63;1.10;;;24.90;99.90;;;;;;5012039;28;20419;-71
2023/10/28 10:20:26;;;;;;;1.93;1.10;;;26.30;95.30;;;;;;5012426;28;20399;-71
2023/10/28 10:23:02;;;;;;;3.53;1.50;;;28.10;64.10;;;;;;5012148;28;20776;-72
2023/10/28 10:25:39;;;;;;;2.30;1.40;;;29.70;56.70;;;;;;5011975;28;20410;-71
2023/10/28 10:28:15;;;;;;;2.20;1.50;;;31.20;52.30;;;;;;5010902;28;20422;-71
2023/10/28 10:30:42;;;;;;;1.20;1.10;;;30.40;47.20;;;;;;5012126;28;20398;-71
2023/10/28 10:33:08;;;;;;;3.83;1.50;;;30.40;48.00;;;;;;5010907;28;20558;-71
2023/10/28 10:35:36;;;;;;;1.77;1.67;;;30.70;46.00;;;;;;5012329;28;20463;-71
2023/10/28 10:38:08;;;;;;;1.83;1.50;;;29.40;42.80;;;;;;5011867;28;20477;-71
2023/10/28 10:40:49;;;;;;;1.33;1.23;;;27.10;43.50;;;;;;4994489;28;20419;-71
2023/10/28 10:43:19;;;;;;;2.43;1.53;;;25.90;47.40;;;;;;4994462;28;20744;-71
2023/10/28 10:45:45;;;;;;;3.13;2.33;;;25.40;50.30;;;;;;5011967;28;20894;-71
2023/10/28 10:48:11;;;;;;;2.60;1.67;;;24.50;49.30;;;;;;4994099;28;20442;-71
2023/10/28 10:50:37;;;;;;;2.87;1.77;;;23.40;50.10;;;;;;4994280;28;20420;-70
2023/10/28 10:53:03;;;;;;;2.13;1.73;;;22.70;51.80;;;;;;5011591;28;20175;-71
2023/10/28 10:55:29;;;;;;;5.67;1.80;;;22.40;56.10;;;;;;5011641;28;20454;-71
2023/10/28 10:57:55;;;;;;;1.80;1.37;;;22.40;57.90;;;;;;5013847;28;20430;-71
2023/10/28 11:00:21;;;;;;;3.70;2.10;;;21.90;62.50;;;;;;5015558;28;20182;-70
2023/10/28 11:02:48;;;;;;;6.00;4.13;;;22.00;80.20;;;;;;5015139;28;20171;-71
2023/10/28 11:05:15;;;;;;;3.70;1.63;;;22.40;96.60;;;;;;5015551;28;20405;-71
2023/10/28 11:07:45;;;;;;;4.30;1.93;;;22.50;87.00;;;;;;4997873;28;20493;-71
2023/10/28 11:10:11;;;;;;;1.83;1.40;;;22.50;84.80;;;;;;5015292;28;20427;-71
2023/10/28 11:12:38;;;;;;;3.73;1.63;;;22.40;81.90;;;;;;5014993;28;20442;-71
2023/10/28 11:15:05;;;;;;;2.20;1.40;;;22.00;80.60;;;;;;5013823;28;21088;-71
2023/10/28 11:17:31;;;;;;;5.80;2.13;;;21.70;88.10;;;;;;5013916;28;20510;-71
2023/10/28 11:20:00;;;;;;;5.00;1.90;;;21.50;92.80;;;;;;5015123;28;20522;-71
2023/10/28 11:22:28;;;;;;;3.77;1.10;;;21.10;99.90;;;;;;5014947;28;20165;-71
2023/10/28 11:24:57;;;;;;;1.60;1.50;;;21.10;99.90;;;;;;5010977;28;20445;-71
2023/10/28 11:27:26;;;;;;;3.87;1.40;;;21.00;99.90;;;;;;5015152;28;20435;-71
2023/10/28 11:29:57;;;;;;;2.80;1.40;;;20.80;99.90;;;;;;5016038;28;20466;-72
2023/10/28 11:32:23;;;;;;;3.57;1.40;;;20.80;99.90;;;;;;5015648;28;20439;-71
2023/10/28 11:34:49;;;;;;;5.33;1.60;;;21.10;99.90;;;;;;5009389;28;20467;-71
2023/10/28 11:37:14;;;;;;;7.03;1.80;;;21.20;99.90;;;;;;5005259;28;20821;-71
2023/10/28 11:39:41;;;;;;;4.60;1.50;;;20.80;98.90;;;;;;5011781;28;20179;-71
2023/10/28 11:42:17;;;;;;;2.10;1.07;;;20.30;99.90;;;;;;5007643;28;20160;-71
2023/10/28 11:44:50;;;;;;;4.43;1.27;;;19.90;99.90;;;;;;5015847;28;20434;-70
2023/10/28 11:47:17;;;;;;;2.03;1.40;;;19.90;99.90;;;;;;5015966;28;20940;-70
2023/10/28 11:49:43;;;;;;;2.80;1.43;;;20.90;99.90;;;;;;5015275;28;20407;-70
2023/10/28 11:52:11;;;;;;;3.40;2.00;;;22.60;99.90;;;;;;5014859;28;20458;-70
2023/10/28 11:54:37;;;;;;;3.60;1.70;;;23.40;87.10;;;;;;5014542;28;20788;-70
2023/10/28 11:57:02;;;;;;;5.97;2.07;;;24.20;70.10;;;;;;5014569;28;20514;-71
2023/10/28 11:59:28;;;;;;;1.60;1.50;;;24.40;62.40;;;;;;5014492;28;20217;-71
2023/10/28 12:01:54;;;;;;;2.17;1.60;;;25.70;64.10;;;;;;5014297;28;20168;-71
2023/10/28 12:04:23;;;;;;;3.17;1.93;;;28.00;55.50;;;;;;5014332;28;20168;-71
2023/10/28 12:06:48;;;;;;;2.07;1.87;;;29.90;47.90;;;;;;5014470;28;20168;-71
2023/10/28 12:09:14;;;;;;;3.37;1.70;;;31.40;43.10;;;;;;5013723;28;20769;-70
2023/10/28 12:11:40;;;;;;;4.40;1.83;;;32.70;40.10;;;;;;5014308;28;20177;-71
2023/10/28 12:14:07;;;;;;;2.20;2.00;;;33.90;38.80;;;;;;5014216;28;20698;-71
2023/10/28 12:16:39;;;;;;;2.30;2.10;;;34.60;36.10;;;;;;5014199;28;20407;-71
2023/10/28 12:19:05;;;;;;;2.40;2.20;;;34.60;34.20;;;;;;5014184;28;20399;-71
2023/10/28 12:21:32;;;;;;;2.57;1.93;;;34.60;33.20;;;;;;5014110;28;20771;-71
2023/10/28 12:23:57;;;;;;;2.30;1.40;;;36.00;35.10;;;;;;5029459;28;20443;-71
2023/10/28 12:26:23;;;;;;;4.17;1.20;;;36.20;30.90;;;;;;5014130;28;20400;-71
2023/10/28 12:28:49;;;;;;;2.47;1.30;;;34.50;30.00;;;;;;5013864;28;20180;-71
2023/10/28 12:31:16;;;;;;;2.80;1.37;;;33.90;31.20;;;;;;5014205;28;20168;-71
2023/10/28 12:33:41;;;;;;;1.63;1.07;;;32.20;31.00;;;;;;5013708;28;20486;-71
2023/10/28 12:36:08;;;;;;;2.97;2.33;;;29.90;32.40;;;;;;5013648;28;20550;-71
2023/10/28 12:38:34;;;;;;;3.03;1.90;;;28.70;34.60;;;;;;5014090;28;20184;-70
2023/10/28 12:41:00;;;;;;;2.03;1.83;;;27.10;36.30;;;;;;5029423;28;20617;-70
2023/10/28 12:43:27;;;;;;;4.13;1.97;;;25.70;38.30;;;;;;5013320;28;20418;-70